AAL1227 KOKC-KDFW
Flight info
| Callsign | AAL1227 |
|---|---|
| Flight time | 0h 33m |
| Altitude | 23000 |
| Route | MUDDE3 MUDDE RBUKL VKTRY2 |
| Aircraft | MD83/M-SDFGIRWY/S |
Departure
| Time | 2026-05-08 19:35 |
|---|---|
| Airport | OKC Will Rogers World Airport (KOKC) |
Arrival
| Time | 2026-05-08 20:08 |
|---|---|
| Airport | Dallas Fort Worth International Airport (KDFW) |
| Time | Latitude | Longitude | Altitude | Speed | Heading |
|---|---|---|---|---|---|
| 2026-05-08 19:06 | 35.39455 | -97.59404 | 1298 ft | 0 kts | 336° |
| 2026-05-08 19:28 | 35.39455 | -97.59405 | 1298 ft | 0 kts | 336° |
| 2026-05-08 19:28 | 35.39437 | -97.59395 | 1298 ft | 8 kts | 336° |
| 2026-05-08 19:28 | 35.39428 | -97.59390 | 1298 ft | 0 kts | 336° |
| 2026-05-08 19:28 | 35.39402 | -97.59376 | 1298 ft | 8 kts | 336° |
| 2026-05-08 19:29 | 35.39376 | -97.59361 | 1298 ft | 0 kts | 336° |
| 2026-05-08 19:30 | 35.39378 | -97.59362 | 1298 ft | 0 kts | 347° |
| 2026-05-08 19:30 | 35.39380 | -97.59360 | 1298 ft | 0 kts | 17° |
| 2026-05-08 19:30 | 35.39385 | -97.59350 | 1298 ft | 1 kts | 72° |
| 2026-05-08 19:31 | 35.39383 | -97.59323 | 1297 ft | 8 kts | 90° |
| 2026-05-08 19:31 | 35.39404 | -97.59230 | 1296 ft | 13 kts | 33° |
| 2026-05-08 19:31 | 35.39470 | -97.59182 | 1296 ft | 10 kts | 69° |
| 2026-05-08 19:31 | 35.39484 | -97.59086 | 1295 ft | 12 kts | 59° |
| 2026-05-08 19:32 | 35.39579 | -97.59062 | 1293 ft | 16 kts | 359° |
| 2026-05-08 19:32 | 35.39690 | -97.59063 | 1295 ft | 16 kts | 0° |
| 2026-05-08 19:32 | 35.39798 | -97.59062 | 1296 ft | 16 kts | 0° |
| 2026-05-08 19:32 | 35.39924 | -97.59061 | 1293 ft | 23 kts | 360° |
| 2026-05-08 19:33 | 35.40090 | -97.59063 | 1293 ft | 24 kts | 360° |
| 2026-05-08 19:33 | 35.40259 | -97.59063 | 1293 ft | 25 kts | 360° |
| 2026-05-08 19:33 | 35.40385 | -97.59039 | 1291 ft | 15 kts | 49° |
| 2026-05-08 19:33 | 35.40396 | -97.58922 | 1294 ft | 10 kts | 116° |
| 2026-05-08 19:34 | 35.40335 | -97.58895 | 1295 ft | 13 kts | 179° |
| 2026-05-08 19:34 | 35.40125 | -97.58897 | 1294 ft | 57 kts | 179° |
| 2026-05-08 19:34 | 35.39514 | -97.58893 | 1292 ft | 117 kts | 180° |
| 2026-05-08 19:34 | 35.38545 | -97.58892 | 1421 ft | 151 kts | 182° |
| 2026-05-08 19:35 | 35.37540 | -97.58843 | 2281 ft | 140 kts | 180° |
| 2026-05-08 19:35 | 35.36535 | -97.58796 | 2815 ft | 152 kts | 181° |
| 2026-05-08 19:35 | 35.35421 | -97.58751 | 3178 ft | 167 kts | 182° |
| 2026-05-08 19:35 | 35.34207 | -97.58636 | 3459 ft | 192 kts | 180° |
| 2026-05-08 19:36 | 35.32757 | -97.58536 | 3724 ft | 224 kts | 181° |
| 2026-05-08 19:36 | 35.31114 | -97.58447 | 4099 ft | 248 kts | 180° |
| 2026-05-08 19:36 | 35.29326 | -97.58336 | 4579 ft | 265 kts | 182° |
| 2026-05-08 19:36 | 35.27468 | -97.58162 | 5393 ft | 270 kts | 178° |
| 2026-05-08 19:37 | 35.25585 | -97.57961 | 6219 ft | 271 kts | 179° |
| 2026-05-08 19:37 | 35.23688 | -97.57790 | 6927 ft | 276 kts | 179° |
| 2026-05-08 19:37 | 35.21754 | -97.57591 | 7599 ft | 281 kts | 179° |
| 2026-05-08 19:37 | 35.19796 | -97.57403 | 8289 ft | 285 kts | 179° |
| 2026-05-08 19:38 | 35.17800 | -97.57230 | 8950 ft | 289 kts | 180° |
| 2026-05-08 19:38 | 35.15770 | -97.57062 | 9610 ft | 295 kts | 180° |
| 2026-05-08 19:38 | 35.13699 | -97.56900 | 10215 ft | 302 kts | 180° |
| 2026-05-08 19:38 | 35.11528 | -97.56736 | 10399 ft | 323 kts | 180° |
| 2026-05-08 19:39 | 35.09217 | -97.56561 | 10578 ft | 343 kts | 179° |
| 2026-05-08 19:39 | 35.06769 | -97.56373 | 10776 ft | 360 kts | 179° |
| 2026-05-08 19:39 | 35.04234 | -97.56171 | 11229 ft | 368 kts | 179° |
| 2026-05-08 19:39 | 35.01676 | -97.55958 | 11874 ft | 370 kts | 180° |
| 2026-05-08 19:40 | 34.99107 | -97.55700 | 12583 ft | 371 kts | 178° |
| 2026-05-08 19:40 | 34.96523 | -97.55355 | 13192 ft | 376 kts | 177° |
| 2026-05-08 19:40 | 34.93916 | -97.54967 | 13826 ft | 380 kts | 178° |
| 2026-05-08 19:40 | 34.91284 | -97.54842 | 14451 ft | 378 kts | 186° |
| 2026-05-08 19:41 | 34.88653 | -97.54950 | 15102 ft | 379 kts | 187° |
| 2026-05-08 19:41 | 34.86018 | -97.55115 | 15743 ft | 381 kts | 188° |
| 2026-05-08 19:41 | 34.83361 | -97.55289 | 16349 ft | 383 kts | 188° |
| 2026-05-08 19:41 | 34.80689 | -97.55461 | 16961 ft | 386 kts | 188° |
| 2026-05-08 19:42 | 34.78032 | -97.55623 | 17555 ft | 389 kts | 189° |
| 2026-05-08 19:42 | 34.75317 | -97.55775 | 18155 ft | 391 kts | 189° |
| 2026-05-08 19:42 | 34.72588 | -97.55920 | 18685 ft | 394 kts | 189° |
| 2026-05-08 19:42 | 34.69834 | -97.56062 | 19172 ft | 398 kts | 188° |
| 2026-05-08 19:43 | 34.67049 | -97.56204 | 19646 ft | 402 kts | 188° |
| 2026-05-08 19:43 | 34.64245 | -97.56341 | 20164 ft | 405 kts | 188° |
| 2026-05-08 19:43 | 34.61413 | -97.56478 | 20668 ft | 408 kts | 188° |
| 2026-05-08 19:43 | 34.58564 | -97.56616 | 21141 ft | 412 kts | 188° |
| 2026-05-08 19:44 | 34.55677 | -97.56756 | 21620 ft | 416 kts | 188° |
| 2026-05-08 19:44 | 34.52767 | -97.56898 | 22064 ft | 420 kts | 188° |
| 2026-05-08 19:44 | 34.49835 | -97.57041 | 22478 ft | 424 kts | 188° |
| 2026-05-08 19:44 | 34.46864 | -97.57187 | 22706 ft | 430 kts | 188° |
| 2026-05-08 19:45 | 34.43875 | -97.57331 | 22811 ft | 429 kts | 188° |
| 2026-05-08 19:45 | 34.40954 | -97.57462 | 22849 ft | 408 kts | 188° |
| 2026-05-08 19:45 | 34.38209 | -97.57579 | 22869 ft | 394 kts | 188° |
| 2026-05-08 19:45 | 34.35436 | -97.57710 | 22890 ft | 394 kts | 188° |
| 2026-05-08 19:46 | 34.32725 | -97.57850 | 22901 ft | 398 kts | 188° |
| 2026-05-08 19:46 | 34.29949 | -97.57997 | 22901 ft | 400 kts | 188° |
| 2026-05-08 19:46 | 34.24369 | -97.58281 | 22902 ft | 402 kts | 188° |
| 2026-05-08 19:47 | 34.21581 | -97.58415 | 22887 ft | 400 kts | 188° |
| 2026-05-08 19:47 | 34.18806 | -97.58547 | 22890 ft | 399 kts | 188° |
| 2026-05-08 19:47 | 34.16035 | -97.58681 | 22898 ft | 399 kts | 188° |
| 2026-05-08 19:47 | 34.13247 | -97.58818 | 22898 ft | 401 kts | 188° |
| 2026-05-08 19:48 | 34.10461 | -97.58955 | 22902 ft | 401 kts | 188° |
| 2026-05-08 19:48 | 34.07664 | -97.59093 | 22904 ft | 402 kts | 188° |
| 2026-05-08 19:48 | 34.04886 | -97.59228 | 22900 ft | 403 kts | 188° |
| 2026-05-08 19:48 | 34.02084 | -97.59364 | 22897 ft | 403 kts | 188° |
| 2026-05-08 19:49 | 33.99286 | -97.59499 | 22667 ft | 400 kts | 188° |
| 2026-05-08 19:49 | 33.96536 | -97.59622 | 22201 ft | 391 kts | 188° |
| 2026-05-08 19:49 | 33.93855 | -97.59739 | 21702 ft | 384 kts | 188° |
| 2026-05-08 19:49 | 33.91210 | -97.59863 | 21167 ft | 378 kts | 188° |
| 2026-05-08 19:50 | 33.88597 | -97.59992 | 20610 ft | 373 kts | 188° |
| 2026-05-08 19:50 | 33.86016 | -97.60159 | 20043 ft | 369 kts | 189° |
| 2026-05-08 19:50 | 33.83468 | -97.60372 | 19463 ft | 365 kts | 190° |
| 2026-05-08 19:50 | 33.80946 | -97.60600 | 18883 ft | 363 kts | 190° |
| 2026-05-08 19:51 | 33.78435 | -97.60830 | 18331 ft | 360 kts | 190° |
| 2026-05-08 19:51 | 33.75953 | -97.61054 | 17730 ft | 356 kts | 190° |
| 2026-05-08 19:51 | 33.73491 | -97.61269 | 17147 ft | 352 kts | 190° |
| 2026-05-08 19:51 | 33.71062 | -97.61476 | 16599 ft | 348 kts | 190° |
| 2026-05-08 19:52 | 33.68669 | -97.61676 | 16116 ft | 342 kts | 190° |
| 2026-05-08 19:52 | 33.66354 | -97.61863 | 16017 ft | 325 kts | 190° |
| 2026-05-08 19:52 | 33.64117 | -97.62042 | 15945 ft | 323 kts | 190° |
| 2026-05-08 19:52 | 33.61824 | -97.62243 | 15746 ft | 339 kts | 191° |
| 2026-05-08 19:53 | 33.59437 | -97.62458 | 15015 ft | 347 kts | 190° |
| 2026-05-08 19:53 | 33.57022 | -97.62665 | 14257 ft | 350 kts | 190° |
| 2026-05-08 19:53 | 33.54589 | -97.62865 | 13524 ft | 350 kts | 189° |
| 2026-05-08 19:53 | 33.52187 | -97.63060 | 12780 ft | 342 kts | 189° |
| 2026-05-08 19:54 | 33.49840 | -97.63249 | 12092 ft | 333 kts | 189° |
| 2026-05-08 19:54 | 33.47560 | -97.63433 | 11455 ft | 323 kts | 189° |
| 2026-05-08 19:54 | 33.45377 | -97.63610 | 10905 ft | 314 kts | 188° |
| 2026-05-08 19:54 | 33.43208 | -97.63784 | 10439 ft | 301 kts | 189° |
| 2026-05-08 19:55 | 33.41221 | -97.63937 | 10323 ft | 279 kts | 189° |
| 2026-05-08 19:55 | 33.39332 | -97.63897 | 10223 ft | 270 kts | 172° |
| 2026-05-08 19:55 | 33.37649 | -97.62858 | 10167 ft | 283 kts | 141° |
| 2026-05-08 19:55 | 33.36309 | -97.61037 | 10110 ft | 297 kts | 132° |
| 2026-05-08 19:56 | 33.35058 | -97.59066 | 10046 ft | 299 kts | 131° |
| 2026-05-08 19:56 | 33.33827 | -97.57054 | 9974 ft | 301 kts | 130° |
| 2026-05-08 19:56 | 33.32614 | -97.55006 | 9815 ft | 302 kts | 129° |
| 2026-05-08 19:56 | 33.31411 | -97.52947 | 9607 ft | 302 kts | 129° |
| 2026-05-08 19:57 | 33.30206 | -97.50895 | 9345 ft | 300 kts | 129° |
| 2026-05-08 19:57 | 33.29006 | -97.48877 | 9143 ft | 296 kts | 130° |
| 2026-05-08 19:57 | 33.27819 | -97.46886 | 8980 ft | 294 kts | 127° |
| 2026-05-08 19:57 | 33.27044 | -97.44616 | 8755 ft | 301 kts | 102° |
| 2026-05-08 19:58 | 33.26826 | -97.42076 | 8149 ft | 311 kts | 94° |
| 2026-05-08 19:58 | 33.26723 | -97.39489 | 7677 ft | 310 kts | 94° |
| 2026-05-08 19:58 | 33.26638 | -97.36961 | 7480 ft | 299 kts | 93° |
| 2026-05-08 19:58 | 33.26561 | -97.34516 | 7304 ft | 290 kts | 93° |
| 2026-05-08 19:59 | 33.26514 | -97.32938 | 7179 ft | 284 kts | 93° |
| 2026-05-08 19:59 | 33.26437 | -97.30607 | 6899 ft | 279 kts | 94° |
| 2026-05-08 19:59 | 33.26343 | -97.28293 | 6625 ft | 277 kts | 94° |
| 2026-05-08 19:59 | 33.26244 | -97.26004 | 6360 ft | 275 kts | 94° |
| 2026-05-08 20:00 | 33.26157 | -97.23727 | 6004 ft | 274 kts | 93° |
| 2026-05-08 20:00 | 33.26070 | -97.21457 | 5700 ft | 272 kts | 93° |
| 2026-05-08 20:00 | 33.25973 | -97.19217 | 5452 ft | 267 kts | 98° |
| 2026-05-08 20:00 | 33.25495 | -97.17096 | 5215 ft | 263 kts | 111° |
| 2026-05-08 20:01 | 33.24803 | -97.15084 | 5100 ft | 261 kts | 115° |
| 2026-05-08 20:01 | 33.24040 | -97.13120 | 5055 ft | 262 kts | 116° |
| 2026-05-08 20:01 | 33.23259 | -97.11180 | 5031 ft | 263 kts | 117° |
| 2026-05-08 20:01 | 33.22465 | -97.09213 | 5022 ft | 264 kts | 117° |
| 2026-05-08 20:02 | 33.21680 | -97.07229 | 4997 ft | 264 kts | 116° |
| 2026-05-08 20:02 | 33.20900 | -97.05252 | 4987 ft | 262 kts | 118° |
| 2026-05-08 20:02 | 33.19811 | -97.03539 | 4991 ft | 259 kts | 146° |
| 2026-05-08 20:02 | 33.18178 | -97.02710 | 5012 ft | 256 kts | 173° |
| 2026-05-08 20:03 | 33.16449 | -97.02477 | 4988 ft | 242 kts | 180° |
| 2026-05-08 20:03 | 33.14824 | -97.02383 | 4987 ft | 226 kts | 182° |
| 2026-05-08 20:03 | 33.13289 | -97.02392 | 4841 ft | 217 kts | 184° |
| 2026-05-08 20:03 | 33.11854 | -97.02398 | 4808 ft | 198 kts | 184° |
| 2026-05-08 20:04 | 33.10490 | -97.02405 | 4520 ft | 195 kts | 184° |
| 2026-05-08 20:04 | 33.09150 | -97.02426 | 4189 ft | 191 kts | 184° |
| 2026-05-08 20:04 | 33.07832 | -97.02465 | 3934 ft | 187 kts | 185° |
| 2026-05-08 20:04 | 33.06540 | -97.02510 | 3580 ft | 186 kts | 184° |
| 2026-05-08 20:05 | 33.05252 | -97.02525 | 3253 ft | 184 kts | 181° |
| 2026-05-08 20:05 | 33.03969 | -97.02528 | 2988 ft | 182 kts | 180° |
| 2026-05-08 20:05 | 33.02714 | -97.02535 | 2740 ft | 179 kts | 180° |
| 2026-05-08 20:05 | 33.01476 | -97.02547 | 2505 ft | 176 kts | 180° |
| 2026-05-08 20:06 | 33.00267 | -97.02559 | 2278 ft | 172 kts | 179° |
| 2026-05-08 20:06 | 32.99060 | -97.02554 | 2040 ft | 173 kts | 177° |
| 2026-05-08 20:06 | 32.97890 | -97.02550 | 1857 ft | 159 kts | 177° |
| 2026-05-08 20:06 | 32.96865 | -97.02571 | 1720 ft | 142 kts | 180° |
| 2026-05-08 20:07 | 32.95902 | -97.02581 | 1482 ft | 134 kts | 177° |
| 2026-05-08 20:07 | 32.94979 | -97.02562 | 1274 ft | 134 kts | 180° |
| 2026-05-08 20:07 | 32.94036 | -97.02589 | 1146 ft | 133 kts | 180° |
| 2026-05-08 20:07 | 32.93113 | -97.02582 | 913 ft | 136 kts | 182° |
| 2026-05-08 20:08 | 32.92173 | -97.02588 | 732 ft | 133 kts | 181° |
| 2026-05-08 20:08 | 32.91256 | -97.02599 | 574 ft | 129 kts | 182° |
| 2026-05-08 20:08 | 32.90519 | -97.02605 | 578 ft | 76 kts | 180° |
| 2026-05-08 20:08 | 32.90145 | -97.02607 | 576 ft | 33 kts | 180° |
| 2026-05-08 20:09 | 32.90014 | -97.02634 | 574 ft | 10 kts | 198° |
| 2026-05-08 20:09 | 32.89951 | -97.02663 | 571 ft | 11 kts | 205° |
| 2026-05-08 20:09 | 32.89878 | -97.02711 | 578 ft | 13 kts | 211° |
| 2026-05-08 20:09 | 32.89800 | -97.02768 | 575 ft | 11 kts | 216° |
| 2026-05-08 20:10 | 32.89795 | -97.02784 | 578 ft | 3 kts | 293° |
| 2026-05-08 20:10 | 32.89848 | -97.02802 | 575 ft | 13 kts | 2° |
| 2026-05-08 20:10 | 32.89971 | -97.02800 | 576 ft | 21 kts | 359° |
| 2026-05-08 20:10 | 32.90086 | -97.02776 | 580 ft | 11 kts | 19° |
| 2026-05-08 20:11 | 32.90103 | -97.02781 | 575 ft | 1 kts | 279° |
| 2026-05-08 20:11 | 32.90071 | -97.02802 | 577 ft | 11 kts | 178° |
| 2026-05-08 20:11 | 32.89983 | -97.02802 | 577 ft | 15 kts | 180° |
| 2026-05-08 20:11 | 32.89861 | -97.02802 | 575 ft | 21 kts | 180° |
| 2026-05-08 20:12 | 32.89709 | -97.02803 | 573 ft | 22 kts | 180° |
| 2026-05-08 20:12 | 32.89561 | -97.02804 | 576 ft | 21 kts | 180° |
| 2026-05-08 20:12 | 32.89409 | -97.02806 | 575 ft | 23 kts | 181° |
| 2026-05-08 20:12 | 32.89239 | -97.02806 | 576 ft | 25 kts | 180° |
| 2026-05-08 20:13 | 32.89068 | -97.02806 | 579 ft | 25 kts | 179° |
| 2026-05-08 20:13 | 32.88896 | -97.02807 | 579 ft | 24 kts | 182° |
| 2026-05-08 20:13 | 32.88731 | -97.02807 | 577 ft | 24 kts | 181° |
| 2026-05-08 20:13 | 32.88562 | -97.02810 | 574 ft | 25 kts | 180° |
| 2026-05-08 20:14 | 32.88389 | -97.02811 | 573 ft | 24 kts | 180° |
| 2026-05-08 20:14 | 32.88218 | -97.02811 | 573 ft | 25 kts | 180° |
| 2026-05-08 20:14 | 32.88045 | -97.02811 | 574 ft | 24 kts | 180° |
| 2026-05-08 20:14 | 32.87882 | -97.02815 | 574 ft | 24 kts | 181° |
| 2026-05-08 20:15 | 32.87717 | -97.02831 | 574 ft | 25 kts | 185° |
| 2026-05-08 20:15 | 32.87539 | -97.02851 | 574 ft | 26 kts | 185° |
| 2026-05-08 20:15 | 32.87360 | -97.02871 | 572 ft | 26 kts | 185° |
| 2026-05-08 20:15 | 32.87208 | -97.02889 | 574 ft | 11 kts | 197° |
| 2026-05-08 20:16 | 32.87161 | -97.02964 | 569 ft | 16 kts | 268° |
| 2026-05-08 20:16 | 32.87161 | -97.03119 | 568 ft | 20 kts | 270° |
| 2026-05-08 20:16 | 32.87168 | -97.03270 | 571 ft | 14 kts | 290° |
| 2026-05-08 20:16 | 32.87257 | -97.03325 | 570 ft | 20 kts | 356° |
| 2026-05-08 20:17 | 32.87412 | -97.03337 | 570 ft | 23 kts | 355° |
| 2026-05-08 20:17 | 32.87571 | -97.03352 | 571 ft | 23 kts | 355° |
| 2026-05-08 20:17 | 32.87725 | -97.03366 | 574 ft | 22 kts | 355° |
| 2026-05-08 20:17 | 32.87873 | -97.03378 | 575 ft | 21 kts | 1° |
| 2026-05-08 20:18 | 32.88019 | -97.03377 | 579 ft | 21 kts | 0° |
| 2026-05-08 20:18 | 32.88166 | -97.03377 | 579 ft | 21 kts | 360° |
| 2026-05-08 20:18 | 32.88318 | -97.03376 | 578 ft | 22 kts | 0° |
| 2026-05-08 20:18 | 32.88471 | -97.03372 | 578 ft | 14 kts | 15° |
| 2026-05-08 20:19 | 32.88553 | -97.03320 | 580 ft | 16 kts | 0° |
| 2026-05-08 20:19 | 32.88668 | -97.03322 | 583 ft | 16 kts | 0° |
| 2026-05-08 20:19 | 32.88786 | -97.03321 | 583 ft | 18 kts | 0° |
| 2026-05-08 20:19 | 32.88910 | -97.03321 | 583 ft | 19 kts | 0° |
| 2026-05-08 20:20 | 32.89043 | -97.03320 | 583 ft | 20 kts | 0° |
| 2026-05-08 20:20 | 32.89182 | -97.03319 | 584 ft | 20 kts | 0° |
| 2026-05-08 20:20 | 32.89324 | -97.03318 | 584 ft | 21 kts | 0° |
| 2026-05-08 20:20 | 32.89468 | -97.03317 | 586 ft | 21 kts | 0° |
| 2026-05-08 20:21 | 32.89609 | -97.03317 | 587 ft | 17 kts | 360° |
| 2026-05-08 20:21 | 32.89694 | -97.03324 | 587 ft | 6 kts | 323° |
| 2026-05-08 20:21 | 32.89707 | -97.03364 | 587 ft | 6 kts | 282° |
| 2026-05-08 20:21 | 32.89730 | -97.03404 | 587 ft | 9 kts | 317° |
| 2026-05-08 20:22 | 32.89744 | -97.03468 | 587 ft | 8 kts | 271° |
| 2026-05-08 20:22 | 32.89745 | -97.03495 | 588 ft | 0 kts | 272° |